North Kansas City, Missouri
Current Conditions -  °F | °C
As of 2:54 AM on Friday 28 Nov 2014 (Local Time) from KMKC Reporting Station
Clear Clear  
Wind Chill: 28°   Ceiling: Unl
Heat Index: 36°   Visibility: 10mi
Dew Point: 22°   Wind: 12mph
Humidity: 57%   Direction: 190°S
Pressure: 30.14"   Gusts: 23mph
Location:  39.1494°N, 94.5733°W
Report Text: KMKC 280854Z 19010G20KT 10SM CLR 02/M06 A3014 RMK AO2 SLP210 T00221056 58034
Loading
Personal Weather Stations






























Interactive Weather Map New forecast layout! Learn more

10-Day Weather Forecast

Advertisements
Track Severe Weather on mobile